createdAt,value
2019-06-07T00:01:45.795Z,986.16
2019-06-07T00:06:45.712Z,986.09
2019-06-07T00:11:45.792Z,986.02
2019-06-07T00:16:45.760Z,986.04
2019-06-07T00:22:15.826Z,985.85
2019-06-07T00:26:57.910Z,985.82
2019-06-07T00:31:45.683Z,985.84
2019-06-07T00:36:45.882Z,985.81
2019-06-07T00:41:45.741Z,985.73
2019-06-07T00:46:45.869Z,985.68
2019-06-07T00:51:50.551Z,985.71
2019-06-07T00:56:45.870Z,985.67
2019-06-07T01:01:45.865Z,985.73
2019-06-07T01:06:45.720Z,985.52
2019-06-07T01:11:45.922Z,985.52
2019-06-07T01:16:57.414Z,985.72
2019-06-07T01:21:45.669Z,985.59
2019-06-07T01:26:45.891Z,985.43
2019-06-07T01:31:45.955Z,985.37
2019-06-07T01:36:45.938Z,985.34
2019-06-07T01:41:45.747Z,985.29
2019-06-07T01:46:45.956Z,985.21
2019-06-07T01:51:45.854Z,985.16
2019-06-07T01:56:45.967Z,985.16
2019-06-07T02:01:45.961Z,985.08
2019-06-07T02:06:45.755Z,984.94
2019-06-07T02:11:45.997Z,984.75
2019-06-07T02:16:45.829Z,984.69
2019-06-07T02:21:45.662Z,984.86
2019-06-07T02:26:45.955Z,984.90
2019-06-07T02:31:45.756Z,984.72
2019-06-07T02:36:45.973Z,984.55
2019-06-07T02:41:45.794Z,984.46
2019-06-07T02:46:49.474Z,984.52
2019-06-07T02:51:45.873Z,984.39
2019-06-07T02:56:56.375Z,984.27
2019-06-07T03:01:46.022Z,984.17
2019-06-07T03:06:45.781Z,984.20
2019-06-07T03:11:46.040Z,984.03
2019-06-07T03:16:45.858Z,984.07
2019-06-07T03:21:46.147Z,984.07
2019-06-07T03:27:30.559Z,984.03
2019-06-07T03:31:47.761Z,983.98
2019-06-07T03:36:46.008Z,983.83
2019-06-07T03:42:04.781Z,983.80
2019-06-07T03:46:46.086Z,983.71
2019-06-07T03:51:45.932Z,983.61
2019-06-07T03:56:45.747Z,983.59
2019-06-07T04:01:45.983Z,983.55
2019-06-07T04:06:45.810Z,983.41
2019-06-07T04:11:46.047Z,983.38
2019-06-07T04:16:45.940Z,983.23
2019-06-07T04:21:46.133Z,983.15
2019-06-07T04:26:46.801Z,983.17
2019-06-07T04:31:46.214Z,983.09
2019-06-07T04:41:45.871Z,983.00
2019-06-07T04:46:46.126Z,982.82
2019-06-07T04:51:45.949Z,982.84
2019-06-07T04:56:46.249Z,982.82
2019-06-07T05:01:46.054Z,982.76
2019-06-07T05:06:45.843Z,982.78
2019-06-07T05:11:46.085Z,982.74
2019-06-07T05:16:46.322Z,982.65
2019-06-07T05:22:02.021Z,982.63
2019-06-07T05:26:46.091Z,982.62
2019-06-07T05:31:46.265Z,982.45
2019-06-07T05:36:47.882Z,982.33
2019-06-07T05:41:45.944Z,982.37
2019-06-07T05:46:47.462Z,982.27
2019-06-07T05:51:46.004Z,982.30
2019-06-07T05:56:45.815Z,982.28
2019-06-07T06:01:55.745Z,982.34
2019-06-07T06:06:47.092Z,982.33
2019-06-07T06:11:58.658Z,982.30
2019-06-07T06:16:47.935Z,982.33
2019-06-07T06:21:46.486Z,982.08
2019-06-07T06:26:51.197Z,982.07
2019-06-07T06:32:39.135Z,981.87
2019-06-07T06:36:47.272Z,981.88
2019-06-07T06:41:57.616Z,981.76
2019-06-07T06:46:50.158Z,981.73
2019-06-07T06:51:50.056Z,981.67
2019-06-07T06:56:47.038Z,981.62
2019-06-07T07:01:49.429Z,981.54
2019-06-07T07:06:45.930Z,981.65
2019-06-07T07:12:08.362Z,981.51
2019-06-07T07:16:50.089Z,981.34
2019-06-07T07:21:51.100Z,981.34
2019-06-07T07:26:48.200Z,981.36
2019-06-07T07:31:50.303Z,981.37
2019-06-07T07:36:48.208Z,981.33
2019-06-07T07:42:12.294Z,981.36
2019-06-07T07:46:46.635Z,981.17
2019-06-07T07:51:46.436Z,981.13
2019-06-07T07:56:47.128Z,981.09
2019-06-07T08:01:46.165Z,981.03
2019-06-07T08:06:46.586Z,981.02
2019-06-07T08:11:47.740Z,980.92
2019-06-07T08:16:47.015Z,980.74
2019-06-07T08:21:47.916Z,980.65
2019-06-07T08:27:09.410Z,980.64
2019-06-07T08:31:48.167Z,980.51
2019-06-07T08:36:46.182Z,980.33
2019-06-07T08:41:59.476Z,980.32
2019-06-07T08:46:46.237Z,980.24
2019-06-07T08:51:46.090Z,979.97
2019-06-07T08:56:45.899Z,980.03
2019-06-07T09:01:46.149Z,979.95
2019-06-07T09:07:07.348Z,980.04
2019-06-07T09:11:46.272Z,980.09
2019-06-07T09:16:46.038Z,979.98
2019-06-07T09:21:46.295Z,980.12
2019-06-07T09:26:46.110Z,980.11
2019-06-07T09:31:53.188Z,980.11
2019-06-07T09:36:46.206Z,980.05
2019-06-07T09:41:49.567Z,980.04
2019-06-07T09:46:46.283Z,980.07
2019-06-07T09:51:46.109Z,980.23
2019-06-07T09:56:46.332Z,980.25
2019-06-07T10:01:46.181Z,980.31
2019-06-07T10:06:46.024Z,980.42
2019-06-07T10:11:46.237Z,980.27
2019-06-07T10:16:47.304Z,980.30
2019-06-07T10:21:46.331Z,980.32
2019-06-07T10:26:46.184Z,980.44
2019-06-07T10:31:46.644Z,980.41
2019-06-07T10:36:46.315Z,980.33
2019-06-07T10:41:46.092Z,980.33
2019-06-07T10:46:46.316Z,980.31
2019-06-07T10:51:46.205Z,980.11
2019-06-07T10:56:45.986Z,980.07
2019-06-07T11:01:46.204Z,980.14
2019-06-07T11:06:46.451Z,980.14
2019-06-07T11:11:46.288Z,980.16
2019-06-07T11:16:46.119Z,980.03
2019-06-07T11:21:46.389Z,980.25
2019-06-07T11:26:46.188Z,980.55
2019-06-07T11:31:47.538Z,980.67
2019-06-07T11:36:46.286Z,980.47
2019-06-07T11:41:46.108Z,980.33
2019-06-07T11:46:46.363Z,980.04
2019-06-07T11:51:46.162Z,980.05
2019-06-07T11:56:46.414Z,980.02
2019-06-07T12:01:46.249Z,979.99
2019-06-07T12:06:46.469Z,979.88
2019-06-07T12:11:46.338Z,979.72
2019-06-07T12:16:46.140Z,979.65
2019-06-07T12:21:46.422Z,979.55
2019-06-07T12:26:46.233Z,979.58
2019-06-07T12:31:46.017Z,979.48
2019-06-07T12:36:46.333Z,979.36
2019-06-07T12:41:46.123Z,979.32
2019-06-07T12:46:46.365Z,979.32
2019-06-07T12:51:46.217Z,979.09
2019-06-07T12:56:46.464Z,978.96
2019-06-07T13:01:46.259Z,979.22
2019-06-07T13:06:46.517Z,979.25
2019-06-07T13:11:46.340Z,979.34
2019-06-07T13:16:46.184Z,979.52
2019-06-07T13:21:46.503Z,979.68
2019-06-07T13:26:46.271Z,979.83
2019-06-07T13:31:46.078Z,979.78
2019-06-07T13:36:46.321Z,979.68
2019-06-07T13:41:46.142Z,979.45
2019-06-07T13:46:46.411Z,979.71
2019-06-07T13:51:46.251Z,979.86
2019-06-07T13:57:01.446Z,980.17
2019-06-07T14:01:46.320Z,980.55
2019-06-07T14:06:46.559Z,980.99
2019-06-07T14:11:50.398Z,981.11
2019-06-07T14:16:46.215Z,981.65
2019-06-07T14:21:46.451Z,982.15
2019-06-07T14:26:46.310Z,982.67
2019-06-07T14:31:46.541Z,982.87
2019-06-07T14:36:46.404Z,983.15
2019-06-07T14:41:46.186Z,983.49
2019-06-07T14:46:46.469Z,983.84
2019-06-07T14:51:46.251Z,983.86
2019-06-07T14:56:46.507Z,983.87
2019-06-07T15:01:46.355Z,984.03
2019-06-07T15:06:46.585Z,984.30
2019-06-07T15:11:46.412Z,984.11
2019-06-07T15:16:46.221Z,983.99
2019-06-07T15:21:46.512Z,984.12
2019-06-07T15:26:46.299Z,984.24
2019-06-07T15:31:46.209Z,983.92
2019-06-07T15:36:46.580Z,984.26
2019-06-07T15:41:46.663Z,984.25
2019-06-07T15:46:46.476Z,984.39
2019-06-07T15:51:46.319Z,984.37
2019-06-07T15:56:46.560Z,984.41
2019-06-07T16:01:46.431Z,984.42
2019-06-07T16:06:46.622Z,984.31
2019-06-07T16:11:46.518Z,984.42
2019-06-07T16:16:46.283Z,984.56
2019-06-07T16:21:46.522Z,984.56
2019-06-07T16:26:46.361Z,984.67
2019-06-07T16:31:46.602Z,984.72
2019-06-07T16:36:46.952Z,984.87
2019-06-07T16:41:46.279Z,984.86
2019-06-07T16:46:46.514Z,984.60
2019-06-07T16:51:46.372Z,984.45
2019-06-07T16:56:50.822Z,984.27
2019-06-07T17:01:46.385Z,984.37
2019-06-07T17:06:47.950Z,984.41
2019-06-07T17:11:46.601Z,984.25
2019-06-07T17:16:47.922Z,984.35
2019-06-07T17:21:47.523Z,983.90
2019-06-07T17:26:47.567Z,984.11
2019-06-07T17:31:46.411Z,984.03
2019-06-07T17:36:46.491Z,984.22
2019-06-07T17:41:58.644Z,984.14
2019-06-07T17:46:47.609Z,983.63
2019-06-07T17:51:46.364Z,983.89
2019-06-07T17:56:46.602Z,983.20
2019-06-07T18:02:07.025Z,982.47
2019-06-07T18:06:47.333Z,983.20
2019-06-07T18:11:47.655Z,983.57
2019-06-07T18:16:46.524Z,983.65
2019-06-07T18:21:47.130Z,983.75
2019-06-07T18:26:46.493Z,983.73
2019-06-07T18:31:46.728Z,983.89
2019-06-07T18:36:46.939Z,983.94
2019-06-07T18:41:46.992Z,983.93
2019-06-07T18:46:46.585Z,983.93
2019-06-07T18:51:47.412Z,983.88
2019-06-07T18:56:46.815Z,984.05
2019-06-07T19:01:47.286Z,983.99
2019-06-07T19:06:46.720Z,983.98
2019-06-07T19:11:46.512Z,984.05
2019-06-07T19:16:46.473Z,984.10
2019-06-07T19:21:46.650Z,984.01
2019-06-07T19:26:46.472Z,984.02
2019-06-07T19:31:46.291Z,984.12
2019-06-07T19:36:48.971Z,984.19
2019-06-07T19:41:46.785Z,984.20
2019-06-07T19:46:46.655Z,984.25
2019-06-07T19:51:46.531Z,984.42
2019-06-07T19:56:46.730Z,984.48
2019-06-07T20:01:46.554Z,984.56
2019-06-07T20:06:46.763Z,984.55
2019-06-07T20:11:46.615Z,984.63
2019-06-07T20:16:46.420Z,984.62
2019-06-07T20:21:46.677Z,984.76
2019-06-07T20:26:46.521Z,984.93
2019-06-07T20:31:46.756Z,985.11
2019-06-07T20:36:46.573Z,985.18
2019-06-07T20:41:46.383Z,985.08
2019-06-07T20:46:46.645Z,985.00
2019-06-07T20:51:46.649Z,985.08
2019-06-07T20:56:46.727Z,985.19
2019-06-07T21:01:46.559Z,985.38
2019-06-07T21:06:46.786Z,985.26
2019-06-07T21:11:46.630Z,985.40
2019-06-07T21:16:46.450Z,985.33
2019-06-07T21:21:46.705Z,985.51
2019-06-07T21:26:46.542Z,985.53
2019-06-07T21:31:46.378Z,985.62
2019-06-07T21:36:46.614Z,985.60
2019-06-07T21:41:46.426Z,985.60
2019-06-07T21:46:46.698Z,985.65
2019-06-07T21:51:46.489Z,985.67
2019-06-07T21:56:46.715Z,985.83
2019-06-07T22:01:46.566Z,985.76
2019-06-07T22:06:46.827Z,985.98
2019-06-07T22:11:46.696Z,985.94
2019-06-07T22:16:46.468Z,986.04
2019-06-07T22:22:01.741Z,986.12
2019-06-07T22:26:46.544Z,986.27
2019-06-07T22:31:46.384Z,986.16
2019-06-07T22:36:46.615Z,986.11
2019-06-07T22:41:46.464Z,986.24
2019-06-07T22:46:46.708Z,986.20
2019-06-07T22:51:46.526Z,986.24
2019-06-07T22:56:46.801Z,986.42
2019-06-07T23:01:46.601Z,986.47
2019-06-07T23:06:46.877Z,986.44
2019-06-07T23:11:46.688Z,986.34
2019-06-07T23:16:55.495Z,986.39
2019-06-07T23:21:46.762Z,986.43
2019-06-07T23:26:46.556Z,986.57
2019-06-07T23:31:46.421Z,986.72
2019-06-07T23:36:46.693Z,986.78
2019-06-07T23:41:46.895Z,986.67
2019-06-07T23:46:46.713Z,986.76
2019-06-07T23:51:46.627Z,986.78
2019-06-07T23:56:46.789Z,986.88
